createdAt,value
2018-07-15T00:00:38.608Z,0.00
2018-07-15T00:02:31.616Z,0.00
2018-07-15T00:03:31.666Z,0.00
2018-07-15T00:05:24.670Z,0.00
2018-07-15T00:06:24.724Z,0.00
2018-07-15T00:08:17.717Z,0.00
2018-07-15T00:09:17.787Z,0.00
2018-07-15T00:11:10.781Z,0.00
2018-07-15T00:12:10.841Z,0.00
2018-07-15T00:14:03.835Z,0.00
2018-07-15T00:15:03.900Z,0.00
2018-07-15T00:16:56.905Z,0.00
2018-07-15T00:17:56.961Z,0.00
2018-07-15T00:19:49.972Z,0.00
2018-07-15T00:20:50.025Z,0.00
2018-07-15T00:22:43.029Z,0.00
2018-07-15T00:23:43.083Z,0.00
2018-07-15T00:25:36.105Z,0.00
2018-07-15T00:26:36.151Z,0.00
2018-07-15T00:28:29.144Z,0.00
2018-07-15T00:29:29.209Z,0.00
2018-07-15T00:31:22.207Z,0.00
2018-07-15T00:32:22.266Z,0.00
2018-07-15T00:34:15.258Z,0.00
2018-07-15T00:35:15.322Z,0.00
2018-07-15T00:37:08.321Z,0.00
2018-07-15T00:38:08.381Z,0.00
2018-07-15T00:40:01.373Z,0.00
2018-07-15T00:41:01.440Z,0.00
2018-07-15T00:42:54.441Z,0.00
2018-07-15T00:43:54.521Z,0.00
2018-07-15T00:45:47.494Z,0.00
2018-07-15T00:46:47.558Z,0.00
2018-07-15T00:48:40.568Z,0.00
2018-07-15T00:49:40.622Z,0.00
2018-07-15T00:51:33.621Z,0.00
2018-07-15T00:52:33.678Z,0.00
2018-07-15T00:54:26.671Z,0.00
2018-07-15T00:55:26.737Z,0.00
2018-07-15T00:57:19.735Z,0.00
2018-07-15T00:58:19.793Z,0.00
2018-07-15T01:00:12.791Z,0.00
2018-07-15T01:01:12.853Z,0.00
2018-07-15T01:03:05.856Z,0.00
2018-07-15T01:04:05.910Z,0.00
2018-07-15T01:05:58.907Z,0.00
2018-07-15T01:06:58.965Z,0.00
2018-07-15T01:08:51.965Z,0.00
2018-07-15T01:09:52.023Z,0.00
2018-07-15T01:11:45.016Z,0.00
2018-07-15T01:12:45.079Z,0.00
2018-07-15T01:14:38.078Z,0.00
2018-07-15T01:15:38.136Z,0.00
2018-07-15T01:17:31.136Z,0.00
2018-07-15T01:18:31.195Z,0.00
2018-07-15T01:20:24.188Z,0.00
2018-07-15T01:21:24.249Z,0.00
2018-07-15T01:23:17.249Z,0.00
2018-07-15T01:24:17.308Z,0.00
2018-07-15T01:26:10.301Z,0.00
2018-07-15T01:27:10.365Z,0.00
2018-07-15T01:29:03.881Z,0.00
2018-07-15T01:30:03.934Z,0.00
2018-07-15T01:31:56.923Z,0.00
2018-07-15T01:32:56.987Z,0.00
2018-07-15T01:34:50.029Z,0.00
2018-07-15T01:35:50.083Z,0.00
2018-07-15T01:37:43.097Z,0.00
2018-07-15T01:38:43.149Z,0.00
2018-07-15T01:40:36.138Z,0.00
2018-07-15T01:41:36.210Z,0.00
2018-07-15T01:43:29.205Z,0.00
2018-07-15T01:44:29.261Z,0.00
2018-07-15T01:46:22.260Z,0.00
2018-07-15T01:47:22.321Z,0.00
2018-07-15T01:49:15.319Z,0.00
2018-07-15T01:50:15.379Z,0.00
2018-07-15T01:52:08.374Z,0.00
2018-07-15T01:53:08.433Z,0.00
2018-07-15T01:55:01.436Z,0.00
2018-07-15T01:56:01.496Z,0.00
2018-07-15T01:57:54.520Z,0.00
2018-07-15T01:58:54.558Z,0.00
2018-07-15T02:00:47.553Z,0.00
2018-07-15T02:01:47.618Z,0.00
2018-07-15T02:03:40.617Z,0.00
2018-07-15T02:04:40.674Z,0.00
2018-07-15T02:06:33.663Z,0.00
2018-07-15T02:07:33.729Z,0.00
2018-07-15T02:09:26.730Z,0.00
2018-07-15T02:10:26.783Z,0.00
2018-07-15T02:12:19.774Z,0.00
2018-07-15T02:13:19.838Z,0.00
2018-07-15T02:15:12.839Z,0.00
2018-07-15T02:16:12.897Z,0.00
2018-07-15T02:18:05.912Z,0.00
2018-07-15T02:19:05.977Z,0.00
2018-07-15T02:20:58.976Z,0.00
2018-07-15T02:21:59.031Z,0.00
2018-07-15T02:23:52.050Z,0.00
2018-07-15T02:24:52.094Z,0.00
2018-07-15T02:26:45.087Z,0.00
2018-07-15T02:27:45.147Z,0.00
2018-07-15T02:29:38.660Z,0.00
2018-07-15T02:30:38.714Z,0.00
2018-07-15T02:32:31.706Z,0.00
2018-07-15T02:33:31.771Z,0.00
2018-07-15T02:35:24.768Z,0.00
2018-07-15T02:36:24.822Z,0.00
2018-07-15T02:38:17.828Z,0.00
2018-07-15T02:39:17.879Z,0.00
2018-07-15T02:41:10.881Z,0.00
2018-07-15T02:42:10.939Z,0.00
2018-07-15T02:44:03.989Z,0.00
2018-07-15T02:45:04.054Z,0.00
2018-07-15T02:46:57.049Z,4.00
2018-07-15T02:47:57.106Z,4.00
2018-07-15T02:49:50.107Z,0.00
2018-07-15T02:50:50.162Z,4.00
2018-07-15T02:52:43.152Z,4.00
2018-07-15T02:53:43.214Z,4.00
2018-07-15T02:55:36.213Z,4.00
2018-07-15T02:56:36.269Z,8.00
2018-07-15T02:58:29.260Z,8.00
2018-07-15T02:59:29.323Z,8.00
2018-07-15T03:01:22.320Z,12.00
2018-07-15T03:02:22.376Z,12.00
2018-07-15T03:04:15.371Z,16.00
2018-07-15T03:05:15.433Z,20.00
2018-07-15T03:07:08.426Z,24.00
2018-07-15T03:08:08.485Z,24.00
2018-07-15T03:10:01.497Z,32.00
2018-07-15T03:11:01.538Z,36.00
2018-07-15T03:12:54.548Z,44.00
2018-07-15T03:13:54.598Z,48.00
2018-07-15T03:15:47.599Z,60.00
2018-07-15T03:16:47.656Z,64.00
2018-07-15T03:18:40.649Z,72.00
2018-07-15T03:19:40.713Z,84.00
2018-07-15T03:21:33.715Z,100.00
2018-07-15T03:22:33.770Z,104.00
2018-07-15T03:24:26.757Z,124.00
2018-07-15T03:25:26.822Z,136.00
2018-07-15T03:27:19.820Z,160.00
2018-07-15T03:28:19.876Z,168.00
2018-07-15T03:30:13.382Z,192.00
2018-07-15T03:31:13.440Z,204.00
2018-07-15T03:33:06.446Z,232.00
2018-07-15T03:34:06.537Z,248.00
2018-07-15T03:35:59.500Z,280.00
2018-07-15T03:36:59.556Z,296.00
2018-07-15T03:38:52.548Z,332.00
2018-07-15T03:39:52.664Z,348.00
2018-07-15T03:41:45.615Z,388.00
2018-07-15T03:42:45.671Z,408.00
2018-07-15T03:44:38.661Z,448.00
2018-07-15T03:45:38.726Z,468.00
2018-07-15T03:47:31.727Z,512.00
2018-07-15T03:48:31.782Z,536.00
2018-07-15T03:50:24.781Z,580.00
2018-07-15T03:51:24.845Z,604.00
2018-07-15T03:53:17.873Z,648.00
2018-07-15T03:54:17.897Z,672.00
2018-07-15T03:56:10.894Z,720.00
2018-07-15T03:57:10.958Z,748.00
2018-07-15T03:59:03.954Z,788.00
2018-07-15T04:00:04.011Z,816.00
2018-07-15T04:01:57.029Z,860.00
2018-07-15T04:02:57.070Z,884.00
2018-07-15T04:04:50.064Z,932.00
2018-07-15T04:05:50.127Z,956.00
2018-07-15T04:07:43.131Z,1008.00
2018-07-15T04:08:43.307Z,1032.00
2018-07-15T04:10:36.194Z,1080.00
2018-07-15T04:11:36.243Z,1104.00
2018-07-15T04:13:29.250Z,1152.00
2018-07-15T04:14:29.298Z,1180.00
2018-07-15T04:16:22.296Z,1228.00
2018-07-15T04:17:22.359Z,1256.00
2018-07-15T04:19:15.360Z,1296.00
2018-07-15T04:20:15.412Z,1328.00
2018-07-15T04:22:08.410Z,1376.00
2018-07-15T04:23:08.473Z,1404.00
2018-07-15T04:25:01.482Z,1448.00
2018-07-15T04:26:01.538Z,1476.00
2018-07-15T04:27:54.542Z,1520.00
2018-07-15T04:28:54.600Z,1544.00
2018-07-15T04:30:47.591Z,1592.00
2018-07-15T04:31:47.653Z,1616.00
2018-07-15T04:33:40.650Z,1664.00
2018-07-15T04:34:40.710Z,1684.00
2018-07-15T04:36:33.724Z,1732.00
2018-07-15T04:37:33.768Z,1752.00
2018-07-15T04:39:26.763Z,1788.00
2018-07-15T04:40:26.822Z,1812.00
2018-07-15T04:42:19.871Z,1852.00
2018-07-15T04:43:19.934Z,1872.00
2018-07-15T04:45:12.935Z,1912.00
2018-07-15T04:46:12.992Z,1932.00
2018-07-15T04:48:06.008Z,1968.00
2018-07-15T04:49:06.046Z,1988.00
2018-07-15T04:50:59.043Z,2032.00
2018-07-15T04:51:59.098Z,2052.00
2018-07-15T04:53:52.095Z,2088.00
2018-07-15T04:54:52.151Z,2108.00
2018-07-15T04:56:45.704Z,2140.00
2018-07-15T04:57:45.718Z,2160.00
2018-07-15T04:59:38.716Z,2188.00
2018-07-15T05:00:38.770Z,2200.00
2018-07-15T05:02:31.760Z,2232.00
2018-07-15T05:03:31.824Z,2248.00
2018-07-15T05:05:24.822Z,2284.00
2018-07-15T05:06:24.905Z,2300.00
2018-07-15T05:08:17.868Z,2332.00
2018-07-15T05:09:17.932Z,2348.00
2018-07-15T05:11:10.945Z,2380.00
2018-07-15T05:12:10.984Z,2400.00
2018-07-15T05:14:03.985Z,2444.00
2018-07-15T05:15:04.048Z,2468.00
2018-07-15T05:16:57.044Z,2516.00
2018-07-15T05:17:57.100Z,2540.00
2018-07-15T05:19:50.097Z,2568.00
2018-07-15T05:20:50.153Z,2584.00
2018-07-15T05:22:43.144Z,2612.00
2018-07-15T05:23:43.210Z,2628.00
2018-07-15T05:25:36.205Z,2664.00
2018-07-15T05:26:36.261Z,2680.00
2018-07-15T05:28:29.251Z,2724.00
2018-07-15T05:29:29.318Z,2744.00
2018-07-15T05:31:22.332Z,2800.00
2018-07-15T05:32:22.366Z,2824.00
2018-07-15T05:34:15.363Z,2864.00
2018-07-15T05:35:15.429Z,2880.00
2018-07-15T05:37:08.423Z,2912.00
2018-07-15T05:38:08.480Z,2920.00
2018-07-15T05:40:01.494Z,2944.00
2018-07-15T05:41:01.543Z,2960.00
2018-07-15T05:42:54.534Z,3000.00
2018-07-15T05:43:54.595Z,3016.00
2018-07-15T05:45:47.601Z,3060.00
2018-07-15T05:46:47.659Z,3088.00
2018-07-15T05:48:40.649Z,3148.00
2018-07-15T05:49:40.711Z,3176.00
2018-07-15T05:51:33.709Z,3248.00
2018-07-15T05:52:33.764Z,3292.00
2018-07-15T05:54:26.754Z,3380.00
2018-07-15T05:55:26.819Z,3428.00
2018-07-15T05:57:20.331Z,3520.00
2018-07-15T05:58:20.385Z,3576.00
2018-07-15T06:00:13.383Z,3700.00
2018-07-15T06:01:13.441Z,3768.00
2018-07-15T06:03:06.438Z,3928.00
2018-07-15T06:04:06.498Z,4028.00
2018-07-15T06:05:59.504Z,4228.00
2018-07-15T06:11:03.717Z,5056.00
2018-07-15T06:12:03.282Z,5296.00
2018-07-15T06:13:57.714Z,5856.00
2018-07-15T06:14:57.776Z,6208.00
2018-07-15T06:16:50.773Z,7124.00
2018-07-15T06:17:50.828Z,7704.00
2018-07-15T06:19:43.845Z,8960.00
2018-07-15T06:20:43.881Z,9592.00
2018-07-15T06:22:36.898Z,10656.00
2018-07-15T06:23:36.938Z,11536.00
2018-07-15T06:25:29.937Z,17728.00
2018-07-15T06:26:30.006Z,19104.00
2018-07-15T06:28:23.010Z,18624.00
2018-07-15T06:29:23.058Z,18720.00
2018-07-15T06:31:16.053Z,19008.00
2018-07-15T06:32:16.117Z,19136.00
2018-07-15T06:34:09.124Z,19488.00
2018-07-15T06:35:09.175Z,19680.00
2018-07-15T06:37:02.196Z,20064.00
2018-07-15T06:38:02.259Z,20352.00
2018-07-15T06:39:55.259Z,21184.00
2018-07-15T06:40:55.330Z,21824.00
2018-07-15T06:42:48.346Z,23776.00
2018-07-15T06:43:48.411Z,24672.00
2018-07-15T06:45:41.420Z,25952.00
2018-07-15T06:46:41.493Z,27424.00
2018-07-15T06:48:34.502Z,31232.00
2018-07-15T06:49:34.572Z,33280.00
2018-07-15T06:51:27.583Z,38624.00
2018-07-15T06:52:27.656Z,41312.00
2018-07-15T06:54:20.674Z,48768.00
2018-07-15T06:55:20.739Z,53184.00
2018-07-15T06:57:13.752Z,58432.00
2018-07-15T06:58:13.846Z,60960.00
2018-07-15T07:00:06.848Z,73760.00
2018-07-15T07:01:06.915Z,80160.00
2018-07-15T07:02:59.933Z,93376.00
2018-07-15T07:04:00.005Z,105536.00
2018-07-15T07:05:53.016Z,110848.00
2018-07-15T07:06:53.092Z,99328.00
2018-07-15T07:08:46.110Z,94496.00
2018-07-15T07:09:46.178Z,85280.00
2018-07-15T07:11:39.205Z,73024.00
2018-07-15T07:12:39.278Z,66176.00
2018-07-15T07:14:32.325Z,61280.00
2018-07-15T07:15:32.376Z,57888.00
2018-07-15T07:17:25.388Z,52032.00
2018-07-15T07:18:25.492Z,50368.00
2018-07-15T07:20:18.489Z,47552.00
2018-07-15T07:21:18.563Z,46464.00
2018-07-15T07:23:11.599Z,48480.00
2018-07-15T07:24:11.660Z,48832.00
2018-07-15T07:26:04.682Z,49088.00
2018-07-15T07:27:04.755Z,50624.00
2018-07-15T07:28:57.870Z,53184.00
2018-07-15T07:29:57.869Z,53376.00
2018-07-15T07:31:50.873Z,53888.00
2018-07-15T07:32:50.966Z,54944.00
2018-07-15T07:34:44.005Z,55584.00
2018-07-15T07:35:44.067Z,54432.00
2018-07-15T07:37:37.084Z,53216.00
2018-07-15T07:38:37.166Z,54272.00
2018-07-15T07:40:30.175Z,54464.00
2018-07-15T07:41:30.261Z,55520.00
2018-07-15T07:43:23.276Z,60736.00
2018-07-15T07:44:23.355Z,61024.00
2018-07-15T07:46:16.382Z,57344.00
2018-07-15T07:47:16.463Z,56032.00
2018-07-15T07:49:09.488Z,56224.00
2018-07-15T07:50:09.572Z,53984.00
2018-07-15T07:52:03.097Z,49472.00
2018-07-15T07:53:03.168Z,48544.00
2018-07-15T07:54:56.211Z,48544.00
2018-07-15T07:55:56.272Z,48032.00
2018-07-15T07:57:49.314Z,47680.00
2018-07-15T07:58:49.390Z,47712.00
2018-07-15T08:00:42.422Z,47680.00
2018-07-15T08:01:42.491Z,47808.00
2018-07-15T08:03:35.509Z,47776.00
2018-07-15T08:04:35.587Z,47904.00
2018-07-15T08:06:28.625Z,48096.00
2018-07-15T08:07:28.721Z,47456.00
2018-07-15T08:09:21.723Z,47264.00
2018-07-15T08:10:21.798Z,47392.00
2018-07-15T08:12:14.827Z,46816.00
2018-07-15T08:13:14.900Z,46400.00
2018-07-15T08:15:07.998Z,46144.00
2018-07-15T08:16:08.005Z,45664.00
2018-07-15T08:18:01.042Z,44864.00
2018-07-15T08:19:01.110Z,44704.00
2018-07-15T08:20:54.158Z,43904.00
2018-07-15T08:21:54.224Z,44160.00
2018-07-15T08:23:47.242Z,44320.00
2018-07-15T08:24:47.321Z,44800.00
2018-07-15T08:26:40.461Z,92608.00
2018-07-15T08:27:40.432Z,118976.00
2018-07-15T08:29:33.483Z,93216.00
2018-07-15T08:30:33.541Z,92576.00
2018-07-15T08:32:26.576Z,92416.00
2018-07-15T08:33:26.649Z,94976.00
2018-07-15T08:35:19.680Z,94496.00
2018-07-15T08:36:19.755Z,96448.00
2018-07-15T08:38:12.784Z,102752.00
2018-07-15T08:39:12.866Z,101248.00
2018-07-15T08:41:05.904Z,95424.00
2018-07-15T08:42:05.980Z,95136.00
2018-07-15T08:43:59.014Z,102304.00
2018-07-15T08:44:59.096Z,101184.00
2018-07-15T08:46:52.133Z,102752.00
2018-07-15T08:47:52.214Z,101376.00
2018-07-15T08:49:45.233Z,103936.00
2018-07-15T08:50:45.313Z,102464.00
2018-07-15T08:52:38.855Z,96864.00
2018-07-15T08:53:38.928Z,97952.00
2018-07-15T08:55:31.966Z,102240.00
2018-07-15T08:56:32.062Z,103104.00
2018-07-15T08:58:25.066Z,102752.00
2018-07-15T08:59:25.149Z,103680.00
2018-07-15T09:01:18.182Z,102592.00
2018-07-15T09:02:18.923Z,104000.00
2018-07-15T09:04:11.279Z,101312.00
2018-07-15T09:05:11.373Z,99488.00
2018-07-15T09:07:04.413Z,99200.00
2018-07-15T09:08:04.496Z,101792.00
2018-07-15T09:09:57.522Z,97760.00
2018-07-15T09:10:57.605Z,100352.00
2018-07-15T09:12:50.645Z,99136.00
2018-07-15T09:13:50.720Z,101088.00
2018-07-15T09:15:43.752Z,98048.00
2018-07-15T09:16:43.833Z,99008.00
2018-07-15T09:18:36.870Z,104448.00
2018-07-15T09:19:36.944Z,102336.00
2018-07-15T09:21:29.974Z,92800.00
2018-07-15T09:22:30.058Z,90080.00
2018-07-15T09:24:23.089Z,89984.00
2018-07-15T09:25:23.166Z,87776.00
2018-07-15T09:27:16.201Z,86816.00
2018-07-15T09:28:16.278Z,82528.00
2018-07-15T09:30:09.304Z,75808.00
2018-07-15T09:31:09.399Z,77696.00
2018-07-15T09:33:02.429Z,75488.00
2018-07-15T09:34:02.508Z,77632.00
2018-07-15T09:35:55.530Z,79968.00
2018-07-15T09:36:55.613Z,54528.00
2018-07-15T09:38:48.652Z,5156.00
2018-07-15T09:39:49.019Z,3796.00
2018-07-15T09:41:41.745Z,3780.00
2018-07-15T09:42:41.826Z,3768.00
2018-07-15T09:44:34.854Z,3752.00
2018-07-15T09:45:34.928Z,3732.00
2018-07-15T09:47:27.944Z,3732.00
2018-07-15T09:48:28.023Z,3716.00
2018-07-15T09:50:21.188Z,3688.00
2018-07-15T09:51:21.120Z,3660.00
2018-07-15T09:53:14.139Z,3592.00
2018-07-15T09:54:14.207Z,3568.00
2018-07-15T09:56:07.242Z,3532.00
2018-07-15T09:57:07.294Z,3516.00
2018-07-15T09:59:00.312Z,3484.00
2018-07-15T10:00:00.388Z,3472.00
2018-07-15T10:01:53.402Z,3440.00
2018-07-15T10:02:53.582Z,3432.00
2018-07-15T10:04:46.591Z,3428.00
2018-07-15T10:05:46.568Z,3412.00
2018-07-15T10:07:39.601Z,3380.00
2018-07-15T10:08:39.651Z,3352.00
2018-07-15T10:10:32.683Z,3332.00
2018-07-15T10:11:32.733Z,3320.00
2018-07-15T10:13:25.748Z,3308.00
2018-07-15T10:14:25.814Z,3296.00
2018-07-15T10:16:18.822Z,3280.00
2018-07-15T10:17:18.891Z,3280.00
2018-07-15T10:19:11.907Z,3268.00
2018-07-15T10:20:11.981Z,3256.00
2018-07-15T10:22:05.004Z,3228.00
2018-07-15T10:23:05.068Z,3220.00
2018-07-15T10:24:58.083Z,3200.00
2018-07-15T10:25:58.145Z,3192.00
2018-07-15T10:27:51.156Z,3184.00
2018-07-15T10:28:51.229Z,3160.00
2018-07-15T10:30:44.240Z,3144.00
2018-07-15T10:31:44.305Z,3144.00
2018-07-15T10:33:37.327Z,3136.00
2018-07-15T10:34:37.383Z,3136.00
2018-07-15T10:36:30.402Z,3136.00
2018-07-15T10:37:30.465Z,3124.00
2018-07-15T10:39:23.480Z,3096.00
2018-07-15T10:40:23.546Z,3084.00
2018-07-15T10:42:16.550Z,3048.00
2018-07-15T10:43:16.622Z,3036.00
2018-07-15T10:45:09.632Z,3020.00
2018-07-15T10:46:09.733Z,3004.00
2018-07-15T10:48:02.695Z,2992.00
2018-07-15T10:49:02.767Z,2988.00
2018-07-15T10:50:55.783Z,2980.00
2018-07-15T10:51:55.847Z,2972.00
2018-07-15T10:53:48.852Z,2948.00
2018-07-15T10:54:48.924Z,2944.00
2018-07-15T10:56:41.942Z,2932.00
2018-07-15T10:57:41.999Z,2924.00
2018-07-15T10:59:35.012Z,2916.00
2018-07-15T11:00:35.075Z,2904.00
2018-07-15T11:02:28.093Z,2880.00
2018-07-15T11:03:28.150Z,2872.00
2018-07-15T11:05:21.167Z,2864.00
2018-07-15T11:06:21.286Z,2860.00
2018-07-15T11:08:14.237Z,2852.00
2018-07-15T11:09:14.307Z,2852.00
2018-07-15T11:11:07.343Z,2836.00
2018-07-15T11:12:07.385Z,2828.00
2018-07-15T11:14:00.389Z,2800.00
2018-07-15T11:15:00.459Z,2796.00
2018-07-15T11:16:53.472Z,2784.00
2018-07-15T11:17:53.538Z,2780.00
2018-07-15T11:19:46.558Z,2764.00
2018-07-15T11:20:46.622Z,2760.00
2018-07-15T11:22:39.629Z,2752.00
2018-07-15T11:23:39.698Z,2748.00
2018-07-15T11:25:32.710Z,2740.00
2018-07-15T11:26:32.772Z,2736.00
2018-07-15T11:28:25.779Z,2728.00
2018-07-15T11:29:25.843Z,2720.00
2018-07-15T11:31:18.922Z,2708.00
2018-07-15T11:32:18.959Z,2704.00
2018-07-15T11:34:12.197Z,2692.00
2018-07-15T11:35:12.032Z,2688.00
2018-07-15T11:37:05.160Z,2672.00
2018-07-15T11:38:05.113Z,2660.00
2018-07-15T11:39:58.336Z,2660.00
2018-07-15T11:40:58.180Z,2648.00
2018-07-15T11:42:51.279Z,2636.00
2018-07-15T11:43:51.265Z,2640.00
2018-07-15T11:45:44.422Z,2636.00
2018-07-15T11:46:44.690Z,2632.00
2018-07-15T11:48:37.894Z,2612.00
2018-07-15T11:49:37.919Z,2608.00
2018-07-15T11:51:30.948Z,2588.00
2018-07-15T11:52:31.012Z,2580.00
2018-07-15T11:54:24.082Z,2560.00
2018-07-15T11:55:24.086Z,2560.00
2018-07-15T11:57:17.098Z,2544.00
2018-07-15T11:58:17.160Z,2532.00
2018-07-15T12:00:10.680Z,2520.00
2018-07-15T12:01:10.741Z,2520.00
2018-07-15T12:03:03.747Z,2516.00
2018-07-15T12:04:03.815Z,2516.00
2018-07-15T12:05:56.822Z,2512.00
2018-07-15T12:06:56.884Z,2520.00
2018-07-15T12:08:49.888Z,2524.00
2018-07-15T12:09:49.959Z,2520.00
2018-07-15T12:11:42.970Z,2520.00
2018-07-15T12:12:43.034Z,2520.00
2018-07-15T12:14:36.068Z,2516.00
2018-07-15T12:15:36.116Z,2516.00
2018-07-15T12:17:29.122Z,2504.00
2018-07-15T12:18:29.188Z,2504.00
2018-07-15T12:20:22.229Z,2492.00
2018-07-15T12:21:22.260Z,2476.00
2018-07-15T12:23:15.267Z,2452.00
2018-07-15T12:24:15.331Z,2444.00
2018-07-15T12:26:08.346Z,2436.00
2018-07-15T12:27:08.408Z,2424.00
2018-07-15T12:29:01.421Z,2408.00
2018-07-15T12:30:01.491Z,2404.00
2018-07-15T12:31:54.501Z,2400.00
2018-07-15T12:32:54.566Z,2396.00
2018-07-15T12:34:47.570Z,2376.00
2018-07-15T12:35:47.637Z,2368.00
2018-07-15T12:37:40.653Z,2364.00
2018-07-15T12:38:40.710Z,2364.00
2018-07-15T12:40:33.740Z,2372.00
2018-07-15T12:41:33.786Z,2376.00
2018-07-15T12:43:26.822Z,2376.00
2018-07-15T12:44:26.857Z,2376.00
2018-07-15T12:46:19.864Z,2376.00
2018-07-15T12:47:19.928Z,2376.00
2018-07-15T12:49:12.935Z,2368.00
2018-07-15T12:50:13.004Z,2360.00
2018-07-15T12:52:06.074Z,2336.00
2018-07-15T12:53:06.077Z,2328.00
2018-07-15T12:54:59.078Z,2316.00
2018-07-15T12:55:59.148Z,2312.00
2018-07-15T12:57:52.160Z,2308.00
2018-07-15T12:58:52.221Z,2300.00
2018-07-15T13:00:45.734Z,2288.00
2018-07-15T13:01:45.800Z,2288.00
2018-07-15T13:03:38.815Z,2276.00
2018-07-15T13:04:38.875Z,2268.00
2018-07-15T13:06:31.884Z,2260.00
2018-07-15T13:07:31.952Z,2252.00
2018-07-15T13:09:24.951Z,2244.00
2018-07-15T13:10:25.020Z,2244.00
2018-07-15T13:12:18.031Z,2232.00
2018-07-15T13:13:18.093Z,2224.00
2018-07-15T13:15:11.103Z,2216.00
2018-07-15T13:16:11.212Z,2212.00
2018-07-15T13:18:04.187Z,2208.00
2018-07-15T13:19:04.247Z,2204.00
2018-07-15T13:20:57.260Z,2200.00
2018-07-15T13:21:57.333Z,2192.00
2018-07-15T13:23:50.337Z,2184.00
2018-07-15T13:24:50.390Z,2180.00
2018-07-15T13:26:43.400Z,2172.00
2018-07-15T13:27:43.469Z,2168.00
2018-07-15T13:29:36.519Z,2164.00
2018-07-15T13:30:36.543Z,2164.00
2018-07-15T13:32:29.554Z,2160.00
2018-07-15T13:33:29.616Z,2156.00
2018-07-15T13:35:22.621Z,2152.00
2018-07-15T13:36:22.688Z,2148.00
2018-07-15T13:38:15.701Z,2144.00
2018-07-15T13:39:15.761Z,2136.00
2018-07-15T13:41:08.768Z,2132.00
2018-07-15T13:42:08.835Z,2124.00
2018-07-15T13:44:01.845Z,2124.00
2018-07-15T13:45:01.905Z,2116.00
2018-07-15T13:46:54.908Z,2116.00
2018-07-15T13:47:54.979Z,2112.00
2018-07-15T13:49:47.988Z,2104.00
2018-07-15T13:50:48.050Z,2100.00
2018-07-15T13:52:41.063Z,2092.00
2018-07-15T13:53:41.126Z,2092.00
2018-07-15T13:55:34.144Z,2088.00
2018-07-15T13:56:34.207Z,2092.00
2018-07-15T13:58:27.269Z,2092.00
2018-07-15T13:59:27.285Z,2092.00
2018-07-15T14:01:20.798Z,2092.00
2018-07-15T14:02:20.867Z,2092.00
2018-07-15T14:04:13.948Z,2096.00
2018-07-15T14:05:13.940Z,2096.00
2018-07-15T14:07:06.943Z,2088.00
2018-07-15T14:08:07.012Z,2088.00
2018-07-15T14:10:00.030Z,2084.00
2018-07-15T14:11:00.086Z,2084.00
2018-07-15T14:12:53.095Z,2080.00
2018-07-15T14:13:53.165Z,2080.00
2018-07-15T14:15:46.171Z,2080.00
2018-07-15T14:16:46.234Z,2076.00
2018-07-15T14:18:39.263Z,2068.00
2018-07-15T14:19:39.308Z,2064.00
2018-07-15T14:21:32.381Z,2060.00
2018-07-15T14:22:32.381Z,2060.00
2018-07-15T14:24:25.395Z,2052.00
2018-07-15T14:25:25.457Z,2052.00
2018-07-15T14:27:18.462Z,2052.00
2018-07-15T14:28:18.531Z,2052.00
2018-07-15T14:30:11.564Z,2048.00
2018-07-15T14:31:11.626Z,2052.00
2018-07-15T14:33:04.633Z,2056.00
2018-07-15T14:34:04.701Z,2052.00
2018-07-15T14:35:57.718Z,2056.00
2018-07-15T14:36:57.784Z,2052.00
2018-07-15T14:38:50.779Z,2044.00
2018-07-15T14:39:50.844Z,2048.00
2018-07-15T14:41:43.859Z,2048.00
2018-07-15T14:42:43.921Z,2048.00
2018-07-15T14:44:36.948Z,2048.00
2018-07-15T14:45:37.948Z,2048.00
2018-07-15T14:47:29.997Z,2048.00
2018-07-15T14:48:30.064Z,2048.00
2018-07-15T14:50:23.072Z,2048.00
2018-07-15T14:51:23.141Z,2048.00
2018-07-15T14:53:16.146Z,2060.00
2018-07-15T14:54:16.209Z,2064.00
2018-07-15T14:56:09.284Z,2072.00
2018-07-15T14:57:09.274Z,2068.00
2018-07-15T14:59:02.287Z,2068.00
2018-07-15T15:00:02.380Z,2064.00
2018-07-15T15:01:55.420Z,2068.00
2018-07-15T15:02:55.428Z,2072.00
2018-07-15T15:04:48.459Z,2084.00
2018-07-15T15:05:48.501Z,2088.00
2018-07-15T15:07:41.508Z,2084.00
2018-07-15T15:08:41.583Z,2092.00
2018-07-15T15:10:34.589Z,2100.00
2018-07-15T15:11:34.651Z,2100.00
2018-07-15T15:13:27.657Z,2088.00
2018-07-15T15:14:27.740Z,2084.00
2018-07-15T15:16:20.737Z,2092.00
2018-07-15T15:17:20.802Z,2100.00
2018-07-15T15:19:13.849Z,2088.00
2018-07-15T15:20:13.874Z,2088.00
2018-07-15T15:22:06.891Z,2080.00
2018-07-15T15:23:06.950Z,2076.00
2018-07-15T15:24:59.955Z,2068.00
2018-07-15T15:26:00.028Z,2068.00
2018-07-15T15:27:53.028Z,2064.00
2018-07-15T15:28:53.130Z,2064.00
2018-07-15T15:30:46.107Z,2048.00
2018-07-15T15:31:46.172Z,2052.00
2018-07-15T15:33:39.297Z,2052.00
2018-07-15T15:34:39.273Z,2052.00
2018-07-15T15:36:32.270Z,2052.00
2018-07-15T15:37:32.331Z,2048.00
2018-07-15T15:39:25.350Z,2056.00
2018-07-15T15:40:25.418Z,2056.00
2018-07-15T15:42:18.467Z,2056.00
2018-07-15T15:43:18.492Z,2056.00
2018-07-15T15:45:11.497Z,2056.00
2018-07-15T15:46:11.566Z,2052.00
2018-07-15T15:48:04.575Z,2044.00
2018-07-15T15:49:04.637Z,2044.00
2018-07-15T15:50:57.642Z,2036.00
2018-07-15T15:51:57.810Z,2028.00
2018-07-15T15:53:50.733Z,2016.00
2018-07-15T15:54:50.797Z,2008.00
2018-07-15T15:56:43.879Z,1988.00
2018-07-15T15:57:43.887Z,1984.00
2018-07-15T15:59:36.920Z,1972.00
2018-07-15T16:00:36.962Z,1972.00
2018-07-15T16:02:29.982Z,1964.00
2018-07-15T16:03:30.125Z,1956.00
2018-07-15T16:05:23.046Z,1948.00
2018-07-15T16:06:23.126Z,1944.00
2018-07-15T16:08:16.125Z,1940.00
2018-07-15T16:09:16.189Z,1936.00
2018-07-15T16:11:09.198Z,1944.00
2018-07-15T16:12:09.260Z,1940.00
2018-07-15T16:14:02.268Z,1936.00
2018-07-15T16:15:02.330Z,1936.00
2018-07-15T16:16:55.338Z,1936.00
2018-07-15T16:17:55.404Z,1940.00
2018-07-15T16:19:48.413Z,1940.00
2018-07-15T16:20:48.477Z,1936.00
2018-07-15T16:22:41.488Z,1932.00
2018-07-15T16:23:41.551Z,1932.00
2018-07-15T16:25:34.552Z,1928.00
2018-07-15T16:26:34.625Z,1928.00
2018-07-15T16:28:27.629Z,1920.00
2018-07-15T16:29:27.691Z,1916.00
2018-07-15T16:31:20.694Z,1908.00
2018-07-15T16:32:20.764Z,1908.00
2018-07-15T16:34:13.874Z,1900.00
2018-07-15T16:35:13.832Z,1900.00
2018-07-15T16:37:06.866Z,1904.00
2018-07-15T16:38:06.935Z,1904.00
2018-07-15T16:39:59.944Z,1896.00
2018-07-15T16:41:00.061Z,1892.00
2018-07-15T16:42:53.018Z,1888.00
2018-07-15T16:43:53.092Z,1888.00
2018-07-15T16:45:46.089Z,1880.00
2018-07-15T16:46:46.153Z,1876.00
2018-07-15T16:48:39.180Z,1872.00
2018-07-15T16:49:39.271Z,1868.00
2018-07-15T16:51:32.255Z,1864.00
2018-07-15T16:52:32.324Z,1860.00
2018-07-15T16:54:25.333Z,1856.00
2018-07-15T16:55:25.396Z,1848.00
2018-07-15T16:57:18.400Z,1840.00
2018-07-15T16:58:18.464Z,1836.00
2018-07-15T17:00:11.475Z,1832.00
2018-07-15T17:01:11.539Z,1828.00
2018-07-15T17:03:04.626Z,1824.00
2018-07-15T17:04:04.630Z,1820.00
2018-07-15T17:05:57.661Z,1812.00
2018-07-15T17:06:57.756Z,1808.00
2018-07-15T17:08:50.789Z,1800.00
2018-07-15T17:09:50.785Z,1796.00
2018-07-15T17:11:43.806Z,1788.00
2018-07-15T17:12:43.858Z,1788.00
2018-07-15T17:14:36.877Z,1780.00
2018-07-15T17:15:36.952Z,1772.00
2018-07-15T17:17:29.945Z,1764.00
2018-07-15T17:18:30.014Z,1764.00
2018-07-15T17:20:23.021Z,1760.00
2018-07-15T17:21:23.089Z,1756.00
2018-07-15T17:23:16.093Z,1748.00
2018-07-15T17:24:16.165Z,1748.00
2018-07-15T17:26:09.172Z,1740.00
2018-07-15T17:27:09.233Z,1740.00
2018-07-15T17:29:02.238Z,1728.00
2018-07-15T17:30:02.304Z,1720.00
2018-07-15T17:31:55.318Z,1708.00
2018-07-15T17:32:55.375Z,1704.00
2018-07-15T17:34:48.381Z,1692.00
2018-07-15T17:35:48.446Z,1684.00
2018-07-15T17:37:41.457Z,1672.00
2018-07-15T17:38:41.519Z,1664.00
2018-07-15T17:40:34.589Z,1656.00
2018-07-15T17:41:34.593Z,1652.00
2018-07-15T17:43:27.597Z,1640.00